createdAt,value
2022-07-29T00:01:54.736Z,2.80
2022-07-29T00:06:57.112Z,2.70
2022-07-29T00:12:01.397Z,2.70
2022-07-29T00:17:03.987Z,3.20
2022-07-29T00:22:06.374Z,2.97
2022-07-29T00:27:08.981Z,2.83
2022-07-29T00:32:11.520Z,3.03
2022-07-29T00:37:13.910Z,3.10
2022-07-29T00:42:17.440Z,3.00
2022-07-29T00:47:19.784Z,3.00
2022-07-29T00:52:22.181Z,3.40
2022-07-29T00:57:24.685Z,3.60
2022-07-29T01:02:27.936Z,3.43
2022-07-29T01:07:33.144Z,3.83
2022-07-29T01:12:37.707Z,3.27
2022-07-29T01:17:50.403Z,4.00
2022-07-29T01:23:04.781Z,3.80
2022-07-29T01:28:35.927Z,3.77
2022-07-29T01:33:50.655Z,3.70
2022-07-29T01:39:03.473Z,3.27
2022-07-29T01:44:18.512Z,3.40
2022-07-29T01:49:29.162Z,3.83
2022-07-29T01:54:49.794Z,4.00
2022-07-29T01:59:53.441Z,4.10
2022-07-29T02:04:57.262Z,3.47
2022-07-29T02:10:02.637Z,3.40
2022-07-29T02:15:08.058Z,3.67
2022-07-29T02:20:14.414Z,3.50
2022-07-29T02:25:18.022Z,3.30
2022-07-29T02:30:24.329Z,3.83
2022-07-29T02:35:27.657Z,3.80
2022-07-29T02:40:40.096Z,3.37
2022-07-29T02:45:43.819Z,3.50
2022-07-29T02:50:51.571Z,3.50
2022-07-29T02:55:59.993Z,3.17
2022-07-29T03:01:19.438Z,3.07
2022-07-29T03:06:38.001Z,3.70
2022-07-29T03:11:50.700Z,3.30
2022-07-29T03:16:53.635Z,3.63
2022-07-29T03:21:58.701Z,3.30
2022-07-29T03:27:01.502Z,3.30
2022-07-29T03:32:08.161Z,3.97
2022-07-29T03:37:11.338Z,3.70
2022-07-29T03:42:16.232Z,3.20
2022-07-29T03:47:39.331Z,3.70
2022-07-29T03:52:47.172Z,3.77
2022-07-29T03:57:50.434Z,3.57
2022-07-29T04:02:52.789Z,3.40
2022-07-29T04:07:55.212Z,3.20
2022-07-29T04:12:57.625Z,3.17
2022-07-29T04:18:00.479Z,2.80
2022-07-29T04:23:02.982Z,2.70
2022-07-29T04:28:05.687Z,2.90
2022-07-29T04:33:09.432Z,2.70
2022-07-29T04:38:17.093Z,2.77
2022-07-29T04:43:23.234Z,2.67
2022-07-29T04:48:28.692Z,3.17
2022-07-29T04:53:31.301Z,2.50
2022-07-29T04:58:36.236Z,2.40
2022-07-29T05:03:38.610Z,2.60
2022-07-29T05:08:41.931Z,2.67
2022-07-29T05:13:45.756Z,2.60
2022-07-29T05:18:49.438Z,2.33
2022-07-29T05:23:51.755Z,2.50
2022-07-29T05:28:54.908Z,2.50
2022-07-29T05:33:57.477Z,2.43
2022-07-29T05:39:00.974Z,2.33
2022-07-29T05:44:03.416Z,2.33
2022-07-29T05:49:07.455Z,2.60
2022-07-29T05:54:09.944Z,2.50
2022-07-29T05:59:18.003Z,2.50
2022-07-29T06:04:21.145Z,2.23
2022-07-29T06:09:23.956Z,3.20
2022-07-29T06:14:27.666Z,3.47
2022-07-29T06:19:30.599Z,3.60
2022-07-29T06:24:33.016Z,3.70
2022-07-29T06:29:35.416Z,3.33
2022-07-29T06:34:38.129Z,3.87
2022-07-29T06:39:40.843Z,3.07
2022-07-29T06:44:43.944Z,2.73
2022-07-29T06:49:46.321Z,2.00
2022-07-29T06:54:49.395Z,2.57
2022-07-29T06:59:51.812Z,2.07
2022-07-29T07:04:54.221Z,2.63
2022-07-29T07:09:56.547Z,2.47
2022-07-29T07:14:59.231Z,2.13
2022-07-29T07:20:02.058Z,1.67
2022-07-29T07:25:04.682Z,1.57
2022-07-29T07:30:08.435Z,1.60
2022-07-29T07:35:11.862Z,1.73
2022-07-29T07:40:18.825Z,2.80
2022-07-29T07:45:21.341Z,1.70
2022-07-29T07:50:23.765Z,2.90
2022-07-29T07:55:26.997Z,1.40
2022-07-29T08:00:29.517Z,2.03
2022-07-29T08:05:31.921Z,1.70
2022-07-29T08:10:53.329Z,1.40
2022-07-29T08:15:59.911Z,1.40
2022-07-29T08:21:02.896Z,1.43
2022-07-29T08:26:11.492Z,1.47
2022-07-29T08:31:14.715Z,1.67
2022-07-29T08:36:17.263Z,1.30
2022-07-29T08:41:20.630Z,1.40
2022-07-29T08:46:23.516Z,1.17
2022-07-29T08:51:27.813Z,1.43
2022-07-29T08:56:31.044Z,2.00
2022-07-29T09:01:42.719Z,2.00
2022-07-29T09:06:50.766Z,2.20
2022-07-29T09:11:54.533Z,1.43
2022-07-29T09:16:57.570Z,1.60
2022-07-29T09:22:03.181Z,1.63
2022-07-29T09:27:21.482Z,1.30
2022-07-29T09:32:24.441Z,1.60
2022-07-29T09:37:30.437Z,1.50
2022-07-29T09:42:34.844Z,1.77
2022-07-29T09:47:48.089Z,1.37
2022-07-29T09:52:54.434Z,1.50
2022-07-29T09:58:16.444Z,1.53
2022-07-29T10:03:19.616Z,1.60
2022-07-29T10:08:27.965Z,1.50
2022-07-29T10:13:30.750Z,1.37
2022-07-29T10:18:34.213Z,2.43
2022-07-29T10:23:46.393Z,1.83
2022-07-29T10:28:49.675Z,2.40
2022-07-29T10:34:18.509Z,2.20
2022-07-29T10:39:56.603Z,1.30
2022-07-29T10:44:59.383Z,1.73
2022-07-29T10:50:04.975Z,1.83
2022-07-29T10:55:07.941Z,2.00
2022-07-29T11:00:17.061Z,2.23
2022-07-29T11:05:21.891Z,1.57
2022-07-29T15:43:56.969Z,1.70
2022-07-29T15:48:59.954Z,1.90
2022-07-29T15:54:04.008Z,1.70
2022-07-29T15:59:06.509Z,1.88
2022-07-29T16:04:09.102Z,1.90
2022-07-29T16:09:11.897Z,1.77
2022-07-29T16:14:14.831Z,1.52
2022-07-29T16:19:17.449Z,1.85
2022-07-29T16:24:19.984Z,1.52
2022-07-29T16:29:22.560Z,1.60
2022-07-29T16:34:25.111Z,1.50
2022-07-29T16:39:27.697Z,1.50
2022-07-29T16:44:30.322Z,1.30
2022-07-29T16:49:34.258Z,1.33
2022-07-29T16:54:36.747Z,1.67
2022-07-29T16:59:43.577Z,1.40
2022-07-29T17:04:46.231Z,1.50
2022-07-29T17:09:52.660Z,1.60
2022-07-29T17:14:57.676Z,1.40
2022-07-29T17:20:00.258Z,1.60
2022-07-29T17:25:03.871Z,1.92
2022-07-29T17:30:07.022Z,1.70
2022-07-29T17:35:28.530Z,1.90
2022-07-29T17:40:31.088Z,1.50
2022-07-29T17:45:49.502Z,1.33
2022-07-29T17:50:53.348Z,1.35
2022-07-29T17:55:56.490Z,1.40
2022-07-29T18:00:59.166Z,2.00
2022-07-29T18:06:01.816Z,1.70
2022-07-29T18:11:04.344Z,1.70
2022-07-29T18:16:09.201Z,1.60
2022-07-29T18:21:12.495Z,1.43
2022-07-29T18:26:14.989Z,1.50
2022-07-29T18:31:17.634Z,1.80
2022-07-29T18:36:20.264Z,1.47
2022-07-29T18:41:22.750Z,1.30
2022-07-29T18:46:25.678Z,1.50
2022-07-29T18:51:28.382Z,1.50
2022-07-29T18:56:31.027Z,1.70
2022-07-29T19:01:33.663Z,1.50
2022-07-29T19:06:36.252Z,1.50
2022-07-29T19:11:39.553Z,1.80
2022-07-29T19:16:42.040Z,1.97
2022-07-29T19:21:44.616Z,1.70
2022-07-29T19:26:47.237Z,1.80
2022-07-29T19:31:49.746Z,2.00
2022-07-29T19:36:52.298Z,1.87
2022-07-29T19:41:59.211Z,1.90
2022-07-29T19:47:04.416Z,1.90
2022-07-29T19:52:07.012Z,1.80
2022-07-29T19:57:09.866Z,2.00
2022-07-29T20:02:13.151Z,1.70
2022-07-29T20:07:15.905Z,2.00
2022-07-29T20:12:18.477Z,1.73
2022-07-29T20:17:22.478Z,1.70
2022-07-29T20:22:25.005Z,1.73
2022-07-29T20:27:27.865Z,1.90
2022-07-29T20:32:30.446Z,2.03
2022-07-29T20:37:32.950Z,1.83
2022-07-29T20:42:54.935Z,1.50
2022-07-29T20:47:58.911Z,2.20
2022-07-29T20:53:01.444Z,2.30
2022-07-29T20:58:04.193Z,2.00
2022-07-29T21:03:06.849Z,2.20
2022-07-29T21:08:09.669Z,2.10
2022-07-29T21:13:14.129Z,2.30
2022-07-29T21:18:36.941Z,2.27
2022-07-29T21:23:39.939Z,2.20
2022-07-29T21:28:43.581Z,2.00
2022-07-29T21:33:47.107Z,2.23
2022-07-29T21:38:49.635Z,1.97
2022-07-29T21:43:52.364Z,2.30
2022-07-29T21:48:57.058Z,1.87
2022-07-29T21:53:59.544Z,1.60
2022-07-29T21:59:02.011Z,1.97
2022-07-29T22:04:04.859Z,2.00
2022-07-29T22:09:07.467Z,1.90
2022-07-29T22:14:10.369Z,1.70
2022-07-29T22:19:14.407Z,1.80
2022-07-29T22:24:16.923Z,1.63
2022-07-29T22:29:20.018Z,1.57
2022-07-29T22:34:22.555Z,1.73
2022-07-29T22:39:25.379Z,1.63
2022-07-29T22:44:27.922Z,1.83
2022-07-29T22:49:31.428Z,1.73
2022-07-29T22:54:33.965Z,1.63
2022-07-29T22:59:37.720Z,1.30
2022-07-29T23:04:40.214Z,1.50
2022-07-29T23:09:42.707Z,1.30
2022-07-29T23:14:45.265Z,1.30
2022-07-29T23:19:47.808Z,1.30
2022-07-29T23:24:50.490Z,1.20
2022-07-29T23:29:53.003Z,1.30
2022-07-29T23:34:55.552Z,1.10
2022-07-29T23:39:58.144Z,1.30
2022-07-29T23:45:00.632Z,1.00
2022-07-29T23:50:04.042Z,1.17
2022-07-29T23:55:37.704Z,1.23
